sensor_id;sensor_type;location;lat;lon;timestamp;pressure;altitude;pressure_sealevel;temperature;humidity
11440;BME280;5776;51.814;4.510;2023-05-08T00:01:46;102119.09;;;15.70;100.00
11440;BME280;5776;51.814;4.510;2023-05-08T00:04:12;102121.84;;;15.70;100.00
11440;BME280;5776;51.814;4.510;2023-05-08T00:06:38;102120.19;;;15.69;100.00
11440;BME280;5776;51.814;4.510;2023-05-08T00:09:04;102122.94;;;15.69;100.00
11440;BME280;5776;51.814;4.510;2023-05-08T00:11:30;102121.28;;;15.68;100.00
11440;BME280;5776;51.814;4.510;2023-05-08T00:13:56;102133.06;;;15.69;100.00
11440;BME280;5776;51.814;4.510;2023-05-08T00:16:22;102130.91;;;15.66;100.00
11440;BME280;5776;51.814;4.510;2023-05-08T00:18:48;102129.84;;;15.62;100.00
11440;BME280;5776;51.814;4.510;2023-05-08T00:21:14;102125.47;;;15.61;100.00
11440;BME280;5776;51.814;4.510;2023-05-08T00:23:40;102121.41;;;15.58;100.00
11440;BME280;5776;51.814;4.510;2023-05-08T00:26:06;102126.06;;;15.58;100.00
11440;BME280;5776;51.814;4.510;2023-05-08T00:28:31;102125.22;;;15.57;100.00
11440;BME280;5776;51.814;4.510;2023-05-08T00:31:01;102128.28;;;15.55;100.00
11440;BME280;5776;51.814;4.510;2023-05-08T00:33:27;102129.69;;;15.53;100.00
11440;BME280;5776;51.814;4.510;2023-05-08T00:36:03;102135.16;;;15.53;100.00
11440;BME280;5776;51.814;4.510;2023-05-08T00:38:31;102136.00;;;15.48;100.00
11440;BME280;5776;51.814;4.510;2023-05-08T00:40:57;102134.63;;;15.51;100.00
11440;BME280;5776;51.814;4.510;2023-05-08T00:43:23;102136.81;;;15.49;100.00
11440;BME280;5776;51.814;4.510;2023-05-08T00:45:53;102131.34;;;15.49;100.00
11440;BME280;5776;51.814;4.510;2023-05-08T00:48:20;102135.75;;;15.50;100.00
11440;BME280;5776;51.814;4.510;2023-05-08T00:50:48;102119.31;;;15.50;100.00
11440;BME280;5776;51.814;4.510;2023-05-08T00:53:16;102133.50;;;15.52;100.00
11440;BME280;5776;51.814;4.510;2023-05-08T00:55:42;102133.00;;;15.50;100.00
11440;BME280;5776;51.814;4.510;2023-05-08T00:58:08;102128.34;;;15.50;100.00
11440;BME280;5776;51.814;4.510;2023-05-08T01:00:35;102123.94;;;15.49;100.00
11440;BME280;5776;51.814;4.510;2023-05-08T01:03:01;102125.88;;;15.49;100.00
11440;BME280;5776;51.814;4.510;2023-05-08T01:05:27;102132.16;;;15.49;100.00
11440;BME280;5776;51.814;4.510;2023-05-08T01:07:53;102121.53;;;15.48;100.00
11440;BME280;5776;51.814;4.510;2023-05-08T01:10:19;102122.59;;;15.47;100.00
11440;BME280;5776;51.814;4.510;2023-05-08T01:12:55;102122.91;;;15.45;100.00
11440;BME280;5776;51.814;4.510;2023-05-08T01:15:30;102118.25;;;15.46;100.00
11440;BME280;5776;51.814;4.510;2023-05-08T01:18:18;102121.25;;;15.44;100.00
11440;BME280;5776;51.814;4.510;2023-05-08T01:20:50;102111.44;;;15.43;100.00
11440;BME280;5776;51.814;4.510;2023-05-08T01:31:24;102117.72;;;15.44;100.00
11440;BME280;5776;51.814;4.510;2023-05-08T01:34:10;102116.09;;;15.43;100.00
11440;BME280;5776;51.814;4.510;2023-05-08T01:39:19;102124.00;;;15.44;100.00
11440;BME280;5776;51.814;4.510;2023-05-08T01:42:12;102122.66;;;15.42;100.00
11440;BME280;5776;51.814;4.510;2023-05-08T01:44:46;102124.59;;;15.41;100.00
11440;BME280;5776;51.814;4.510;2023-05-08T01:47:14;102129.25;;;15.41;100.00
11440;BME280;5776;51.814;4.510;2023-05-08T01:49:49;102130.66;;;15.38;100.00
11440;BME280;5776;51.814;4.510;2023-05-08T01:52:28;102130.91;;;15.37;100.00
11440;BME280;5776;51.814;4.510;2023-05-08T01:55:03;102126.25;;;15.37;100.00
11440;BME280;5776;51.814;4.510;2023-05-08T01:57:33;102135.59;;;15.36;100.00
11440;BME280;5776;51.814;4.510;2023-05-08T02:00:02;102136.16;;;15.33;100.00
11440;BME280;5776;51.814;4.510;2023-05-08T02:02:30;102134.53;;;15.32;100.00
11440;BME280;5776;51.814;4.510;2023-05-08T02:04:58;102137.56;;;15.30;100.00
11440;BME280;5776;51.814;4.510;2023-05-08T02:07:26;102135.91;;;15.29;100.00
11440;BME280;5776;51.814;4.510;2023-05-08T02:09:53;102139.50;;;15.30;100.00
11440;BME280;5776;51.814;4.510;2023-05-08T02:12:20;102135.91;;;15.29;100.00
11440;BME280;5776;51.814;4.510;2023-05-08T02:14:47;102140.56;;;15.29;100.00
11440;BME280;5776;51.814;4.510;2023-05-08T02:17:15;102156.19;;;15.28;100.00
11440;BME280;5776;51.814;4.510;2023-05-08T02:19:43;102145.81;;;15.25;100.00
11440;BME280;5776;51.814;4.510;2023-05-08T02:22:10;102148.84;;;15.24;100.00
11440;BME280;5776;51.814;4.510;2023-05-08T02:24:39;102153.78;;;15.22;100.00
11440;BME280;5776;51.814;4.510;2023-05-08T02:27:08;102160.38;;;15.21;100.00
11440;BME280;5776;51.814;4.510;2023-05-08T02:29:35;102151.34;;;15.20;100.00
11440;BME280;5776;51.814;4.510;2023-05-08T02:32:02;102157.09;;;15.19;100.00
11440;BME280;5776;51.814;4.510;2023-05-08T02:34:29;102146.16;;;15.19;100.00
11440;BME280;5776;51.814;4.510;2023-05-08T02:36:56;102154.63;;;15.17;100.00
11440;BME280;5776;51.814;4.510;2023-05-08T02:39:25;102156.88;;;15.15;100.00
11440;BME280;5776;51.814;4.510;2023-05-08T02:41:53;102152.47;;;15.14;100.00
11440;BME280;5776;51.814;4.510;2023-05-08T02:44:19;102152.78;;;15.12;100.00
11440;BME280;5776;51.814;4.510;2023-05-08T02:46:56;102151.13;;;15.11;100.00
11440;BME280;5776;51.814;4.510;2023-05-08T02:52:31;102146.47;;;15.12;100.00
11440;BME280;5776;51.814;4.510;2023-05-08T02:55:03;102150.31;;;15.11;100.00
11440;BME280;5776;51.814;4.510;2023-05-08T03:00:22;102146.78;;;15.10;100.00
11440;BME280;5776;51.814;4.510;2023-05-08T03:02:56;102136.66;;;15.11;100.00
11440;BME280;5776;51.814;4.510;2023-05-08T03:05:32;102145.97;;;15.10;100.00
11440;BME280;5776;51.814;4.510;2023-05-08T03:08:04;102134.50;;;15.08;100.00
11440;BME280;5776;51.814;4.510;2023-05-08T03:10:33;102135.06;;;15.05;100.00
11440;BME280;5776;51.814;4.510;2023-05-08T03:13:02;102141.94;;;15.02;100.00
11440;BME280;5776;51.814;4.510;2023-05-08T03:15:41;102143.81;;;15.02;100.00
11440;BME280;5776;51.814;4.510;2023-05-08T03:18:10;102143.81;;;15.02;100.00
11440;BME280;5776;51.814;4.510;2023-05-08T03:20:42;102140.84;;;14.98;100.00
11440;BME280;5776;51.814;4.510;2023-05-08T03:23:10;102146.59;;;14.97;100.00
11440;BME280;5776;51.814;4.510;2023-05-08T03:25:39;102140.84;;;14.98;100.00
11440;BME280;5776;51.814;4.510;2023-05-08T03:28:06;102140.84;;;14.98;100.00
11440;BME280;5776;51.814;4.510;2023-05-08T03:30:35;102134.56;;;14.98;100.00
11440;BME280;5776;51.814;4.510;2023-05-08T03:33:06;102140.31;;;14.96;100.00
11440;BME280;5776;51.814;4.510;2023-05-08T03:35:36;102138.97;;;14.94;100.00
11440;BME280;5776;51.814;4.510;2023-05-08T03:38:04;102138.97;;;14.94;100.00
11440;BME280;5776;51.814;4.510;2023-05-08T03:40:30;102140.09;;;14.93;100.00
11440;BME280;5776;51.814;4.510;2023-05-08T03:43:01;102133.28;;;14.90;100.00
11440;BME280;5776;51.814;4.510;2023-05-08T03:45:30;102125.06;;;14.90;100.00
11440;BME280;5776;51.814;4.510;2023-05-08T03:47:58;102130.28;;;14.86;100.00
11440;BME280;5776;51.814;4.510;2023-05-08T03:50:25;102130.03;;;14.83;100.00
11440;BME280;5776;51.814;4.510;2023-05-08T03:52:51;102130.31;;;14.81;100.00
11440;BME280;5776;51.814;4.510;2023-05-08T03:55:17;102125.97;;;14.80;100.00
11440;BME280;5776;51.814;4.510;2023-05-08T03:58:18;102120.22;;;14.77;100.00
11440;BME280;5776;51.814;4.510;2023-05-08T04:01:07;102120.22;;;14.77;100.00
11440;BME280;5776;51.814;4.510;2023-05-08T04:04:15;102121.59;;;14.74;100.00
11440;BME280;5776;51.814;4.510;2023-05-08T04:09:42;102123.31;;;14.70;100.00
11440;BME280;5776;51.814;4.510;2023-05-08T04:15:10;102135.84;;;14.71;100.00
11440;BME280;5776;51.814;4.510;2023-05-08T04:18:15;102144.34;;;14.69;100.00
11440;BME280;5776;51.814;4.510;2023-05-08T04:20:33;102134.28;;;14.65;100.00
11440;BME280;5776;51.814;4.510;2023-05-08T04:23:01;102144.69;;;14.63;100.00
11440;BME280;5776;51.814;4.510;2023-05-08T04:25:29;102148.78;;;14.60;100.00
11440;BME280;5776;51.814;4.510;2023-05-08T04:27:58;102145.25;;;14.60;100.00
11440;BME280;5776;51.814;4.510;2023-05-08T04:30:25;102147.44;;;14.58;100.00
11440;BME280;5776;51.814;4.510;2023-05-08T04:32:52;102143.06;;;14.57;100.00
11440;BME280;5776;51.814;4.510;2023-05-08T04:35:18;102137.88;;;14.55;100.00
11440;BME280;5776;51.814;4.510;2023-05-08T04:37:45;102142.25;;;14.56;100.00
11440;BME280;5776;51.814;4.510;2023-05-08T04:40:12;102149.63;;;14.56;100.00
11440;BME280;5776;51.814;4.510;2023-05-08T04:42:38;102150.44;;;14.56;100.00
11440;BME280;5776;51.814;4.510;2023-05-08T04:45:08;102148.28;;;14.53;100.00
11440;BME280;5776;51.814;4.510;2023-05-08T04:47:34;102146.63;;;14.52;100.00
11440;BME280;5776;51.814;4.510;2023-05-08T04:50:00;102146.09;;;14.50;100.00
11440;BME280;5776;51.814;4.510;2023-05-08T04:52:26;102150.75;;;14.50;100.00
11440;BME280;5776;51.814;4.510;2023-05-08T04:54:52;102142.00;;;14.47;100.00
11440;BME280;5776;51.814;4.510;2023-05-08T04:57:18;102152.94;;;14.47;100.00
11440;BME280;5776;51.814;4.510;2023-05-08T04:59:44;102152.94;;;14.47;100.00
11440;BME280;5776;51.814;4.510;2023-05-08T05:02:11;102159.50;;;14.46;100.00
11440;BME280;5776;51.814;4.510;2023-05-08T05:04:37;102168.50;;;14.47;100.00
11440;BME280;5776;51.814;4.510;2023-05-08T05:07:03;102171.22;;;14.47;100.00
11440;BME280;5776;51.814;4.510;2023-05-08T05:09:29;102176.44;;;14.48;100.00
11440;BME280;5776;51.814;4.510;2023-05-08T05:11:55;102183.81;;;14.48;100.00
11440;BME280;5776;51.814;4.510;2023-05-08T05:14:21;102187.38;;;14.48;100.00
11440;BME280;5776;51.814;4.510;2023-05-08T05:16:47;102193.09;;;14.47;100.00
11440;BME280;5776;51.814;4.510;2023-05-08T05:19:13;102191.22;;;14.47;100.00
11440;BME280;5776;51.814;4.510;2023-05-08T05:21:39;102191.22;;;14.47;100.00
11440;BME280;5776;51.814;4.510;2023-05-08T05:24:05;102200.75;;;14.50;100.00
11440;BME280;5776;51.814;4.510;2023-05-08T05:26:31;102196.66;;;14.53;100.00
11440;BME280;5776;51.814;4.510;2023-05-08T05:28:57;102206.22;;;14.50;100.00
11440;BME280;5776;51.814;4.510;2023-05-08T05:31:23;102209.78;;;14.51;100.00
11440;BME280;5776;51.814;4.510;2023-05-08T05:33:49;102213.31;;;14.51;100.00
11440;BME280;5776;51.814;4.510;2023-05-08T05:36:15;102212.50;;;14.51;100.00
11440;BME280;5776;51.814;4.510;2023-05-08T05:38:41;102216.88;;;14.52;100.00
11440;BME280;5776;51.814;4.510;2023-05-08T05:41:07;102221.25;;;14.53;100.00
11440;BME280;5776;51.814;4.510;2023-05-08T05:43:32;102220.44;;;14.52;100.00
11440;BME280;5776;51.814;4.510;2023-05-08T05:46:06;102219.59;;;14.57;100.00
11440;BME280;5776;51.814;4.510;2023-05-08T05:48:32;102222.91;;;14.54;100.00
11440;BME280;5776;51.814;4.510;2023-05-08T05:50:58;102227.28;;;14.55;100.00
11440;BME280;5776;51.814;4.510;2023-05-08T05:53:23;102224.56;;;14.55;100.00
11440;BME280;5776;51.814;4.510;2023-05-08T05:55:49;102227.28;;;14.55;100.00
11440;BME280;5776;51.814;4.510;2023-05-08T05:58:15;102227.28;;;14.55;100.00
11440;BME280;5776;51.814;4.510;2023-05-08T06:00:42;102224.81;;;14.53;100.00
11440;BME280;5776;51.814;4.510;2023-05-08T06:03:08;102229.19;;;14.54;100.00
11440;BME280;5776;51.814;4.510;2023-05-08T06:05:35;102227.78;;;14.62;100.00
11440;BME280;5776;51.814;4.510;2023-05-08T06:08:02;102225.84;;;14.67;100.00
11440;BME280;5776;51.814;4.510;2023-05-08T06:10:27;102229.38;;;14.73;100.00
11440;BME280;5776;51.814;4.510;2023-05-08T06:12:53;102226.63;;;14.73;100.00
11440;BME280;5776;51.814;4.510;2023-05-08T06:15:20;102224.16;;;14.77;100.00
11440;BME280;5776;51.814;4.510;2023-05-08T06:17:46;102221.41;;;14.77;100.00
11440;BME280;5776;51.814;4.510;2023-05-08T06:20:12;102223.34;;;14.76;100.00
11440;BME280;5776;51.814;4.510;2023-05-08T06:22:37;102222.25;;;14.77;100.00
11440;BME280;5776;51.814;4.510;2023-05-08T06:25:06;102229.34;;;14.78;100.00
11440;BME280;5776;51.814;4.510;2023-05-08T06:27:34;102223.06;;;14.78;100.00
11440;BME280;5776;51.814;4.510;2023-05-08T06:30:01;102225.59;;;14.64;100.00
11440;BME280;5776;51.814;4.510;2023-05-08T06:32:27;102221.53;;;14.46;100.00
11440;BME280;5776;51.814;4.510;2023-05-08T06:34:53;102221.81;;;14.50;100.00
11440;BME280;5776;51.814;4.510;2023-05-08T06:37:19;102225.88;;;14.62;100.00
11440;BME280;5776;51.814;4.510;2023-05-08T06:39:45;102232.69;;;14.70;100.00
11440;BME280;5776;51.814;4.510;2023-05-08T06:42:11;102224.44;;;14.75;100.00
11440;BME280;5776;51.814;4.510;2023-05-08T06:44:37;102224.97;;;14.77;100.00
11440;BME280;5776;51.814;4.510;2023-05-08T06:47:03;102223.88;;;14.78;100.00
11440;BME280;5776;51.814;4.510;2023-05-08T06:49:28;102225.50;;;14.79;100.00
11440;BME280;5776;51.814;4.510;2023-05-08T06:51:54;102222.50;;;14.81;100.00
11440;BME280;5776;51.814;4.510;2023-05-08T06:54:21;102224.09;;;14.82;100.00
11440;BME280;5776;51.814;4.510;2023-05-08T06:56:47;102220.56;;;14.81;100.00
11440;BME280;5776;51.814;4.510;2023-05-08T06:59:13;102224.09;;;14.82;100.00
11440;BME280;5776;51.814;4.510;2023-05-08T07:01:39;102226.84;;;14.82;100.00
11440;BME280;5776;51.814;4.510;2023-05-08T07:04:05;102219.47;;;14.82;100.00
11440;BME280;5776;51.814;4.510;2023-05-08T07:06:30;102219.47;;;14.82;100.00
11440;BME280;5776;51.814;4.510;2023-05-08T07:08:56;102221.09;;;14.83;100.00
11440;BME280;5776;51.814;4.510;2023-05-08T07:11:22;102224.66;;;14.84;100.00
11440;BME280;5776;51.814;4.510;2023-05-08T07:13:48;102218.91;;;14.85;100.00
11440;BME280;5776;51.814;4.510;2023-05-08T07:16:15;102224.38;;;14.85;100.00
11440;BME280;5776;51.814;4.510;2023-05-08T07:18:41;102219.44;;;14.87;100.00
11440;BME280;5776;51.814;4.510;2023-05-08T07:21:07;102219.44;;;14.87;100.00
11440;BME280;5776;51.814;4.510;2023-05-08T07:23:33;102220.53;;;14.86;100.00
11440;BME280;5776;51.814;4.510;2023-05-08T07:25:59;102210.41;;;14.87;100.00
11440;BME280;5776;51.814;4.510;2023-05-08T07:28:24;102218.34;;;14.88;100.00
11440;BME280;5776;51.814;4.510;2023-05-08T07:30:51;102221.06;;;14.88;100.00
11440;BME280;5776;51.814;4.510;2023-05-08T07:33:17;102218.34;;;14.88;100.00
11440;BME280;5776;51.814;4.510;2023-05-08T07:35:43;102221.06;;;14.88;100.00
11440;BME280;5776;51.814;4.510;2023-05-08T07:38:10;102217.22;;;14.89;100.00
11440;BME280;5776;51.814;4.510;2023-05-08T07:40:37;102215.34;;;14.90;100.00
11440;BME280;5776;51.814;4.510;2023-05-08T07:43:03;102210.66;;;14.90;100.00
11440;BME280;5776;51.814;4.510;2023-05-08T07:45:29;102218.31;;;14.94;100.00
11440;BME280;5776;51.814;4.510;2023-05-08T07:47:57;102215.56;;;14.94;100.00
11440;BME280;5776;51.814;4.510;2023-05-08T07:50:24;102212.84;;;14.94;100.00
11440;BME280;5776;51.814;4.510;2023-05-08T07:52:51;102221.84;;;14.94;100.00
11440;BME280;5776;51.814;4.510;2023-05-08T07:55:18;102218.84;;;14.96;100.00
11440;BME280;5776;51.814;4.510;2023-05-08T07:57:43;102218.84;;;14.96;100.00
11440;BME280;5776;51.814;4.510;2023-05-08T08:00:12;102222.94;;;14.98;100.00
11440;BME280;5776;51.814;4.510;2023-05-08T08:02:38;102218.25;;;14.99;100.00
11440;BME280;5776;51.814;4.510;2023-05-08T08:05:05;102226.47;;;14.99;100.00
11440;BME280;5776;51.814;4.510;2023-05-08T08:07:31;102221.53;;;15.01;100.00
11440;BME280;5776;51.814;4.510;2023-05-08T08:10:00;102217.69;;;15.02;100.00
11440;BME280;5776;51.814;4.510;2023-05-08T08:12:29;102217.69;;;15.02;100.00
11440;BME280;5776;51.814;4.510;2023-05-08T08:14:56;102221.28;;;15.02;100.00
11440;BME280;5776;51.814;4.510;2023-05-08T08:17:22;102218.53;;;15.02;100.00
11440;BME280;5776;51.814;4.510;2023-05-08T08:19:48;102222.88;;;15.03;100.00
11440;BME280;5776;51.814;4.510;2023-05-08T08:22:14;102224.50;;;15.04;100.00
11440;BME280;5776;51.814;4.510;2023-05-08T08:24:40;102223.44;;;15.05;100.00
11440;BME280;5776;51.814;4.510;2023-05-08T08:27:06;102224.25;;;15.06;100.00
11440;BME280;5776;51.814;4.510;2023-05-08T08:29:33;102223.66;;;15.09;100.00
11440;BME280;5776;51.814;4.510;2023-05-08T08:31:59;102220.13;;;15.08;100.00
11440;BME280;5776;51.814;4.510;2023-05-08T08:34:25;102226.94;;;15.11;100.00
11440;BME280;5776;51.814;4.510;2023-05-08T08:36:51;102224.47;;;15.09;100.00
11440;BME280;5776;51.814;4.510;2023-05-08T08:39:17;102224.75;;;15.13;100.00
11440;BME280;5776;51.814;4.510;2023-05-08T08:41:42;102221.97;;;15.18;100.00
11440;BME280;5776;51.814;4.510;2023-05-08T08:44:08;102225.28;;;15.15;100.00
11440;BME280;5776;51.814;4.510;2023-05-08T08:46:38;102222.78;;;15.19;100.00
11440;BME280;5776;51.814;4.510;2023-05-08T08:49:08;102222.00;;;15.13;100.00
11440;BME280;5776;51.814;4.510;2023-05-08T08:51:40;102221.19;;;15.12;100.00
11440;BME280;5776;51.814;4.510;2023-05-08T08:54:12;102221.44;;;15.16;100.00
11440;BME280;5776;51.814;4.510;2023-05-08T08:56:40;102216.72;;;15.22;100.00
11440;BME280;5776;51.814;4.510;2023-05-08T08:59:07;102218.06;;;15.24;100.00
11440;BME280;5776;51.814;4.510;2023-05-08T09:01:35;102219.72;;;15.25;100.00
11440;BME280;5776;51.814;4.510;2023-05-08T09:04:03;102219.19;;;15.23;100.00
11440;BME280;5776;51.814;4.510;2023-05-08T09:06:30;102224.66;;;15.23;100.00
11440;BME280;5776;51.814;4.510;2023-05-08T09:09:00;102230.38;;;15.27;100.00
11440;BME280;5776;51.814;4.510;2023-05-08T09:11:27;102225.69;;;15.32;100.00
11440;BME280;5776;51.814;4.510;2023-05-08T09:13:54;102231.66;;;15.34;100.00
11440;BME280;5776;51.814;4.510;2023-05-08T09:16:19;102235.53;;;15.33;100.00
11440;BME280;5776;51.814;4.510;2023-05-08T09:18:46;102231.44;;;15.31;100.00
11440;BME280;5776;51.814;4.510;2023-05-08T09:21:12;102233.06;;;15.32;100.00
11440;BME280;5776;51.814;4.510;2023-05-08T09:26:33;102235.75;;;15.37;100.00
11440;BME280;5776;51.814;4.510;2023-05-08T09:29:19;102236.59;;;15.38;100.00
11440;BME280;5776;51.814;4.510;2023-05-08T09:31:48;102236.59;;;15.38;100.00
11440;BME280;5776;51.814;4.510;2023-05-08T09:39:34;102242.25;;;15.46;100.00
11440;BME280;5776;51.814;4.510;2023-05-08T09:42:02;102241.44;;;15.46;100.00
11440;BME280;5776;51.814;4.510;2023-05-08T09:44:42;102238.72;;;15.46;100.00
11440;BME280;5776;51.814;4.510;2023-05-08T09:47:13;102235.44;;;15.44;100.00
11440;BME280;5776;51.814;4.510;2023-05-08T09:52:30;102238.22;;;15.39;100.00
11440;BME280;5776;51.814;4.510;2023-05-08T09:54:57;102233.81;;;15.43;100.00
11440;BME280;5776;51.814;4.510;2023-05-08T09:57:25;102236.00;;;15.41;100.00
11440;BME280;5776;51.814;4.510;2023-05-08T09:59:51;102241.22;;;15.37;100.00
11440;BME280;5776;51.814;4.510;2023-05-08T10:02:24;102236.34;;;15.34;100.00
11440;BME280;5776;51.814;4.510;2023-05-08T10:04:51;102237.97;;;15.35;100.00
11440;BME280;5776;51.814;4.510;2023-05-08T10:07:26;102236.28;;;15.39;100.00
11440;BME280;5776;51.814;4.510;2023-05-08T10:10:00;102242.84;;;15.43;100.00
11440;BME280;5776;51.814;4.510;2023-05-08T10:12:27;102234.03;;;15.46;100.00
11440;BME280;5776;51.814;4.510;2023-05-08T10:14:53;102240.59;;;15.50;100.00
11440;BME280;5776;51.814;4.510;2023-05-08T10:17:24;102230.44;;;15.51;100.00
11440;BME280;5776;51.814;4.510;2023-05-08T10:19:57;102233.47;;;15.49;100.00
11440;BME280;5776;51.814;4.510;2023-05-08T10:22:24;102242.22;;;15.51;100.00
11440;BME280;5776;51.814;4.510;2023-05-08T10:24:55;102238.38;;;15.52;100.00
11440;BME280;5776;51.814;4.510;2023-05-08T10:27:47;102235.34;;;15.54;100.00
11440;BME280;5776;51.814;4.510;2023-05-08T10:30:18;102237.50;;;15.57;100.00
11440;BME280;5776;51.814;4.510;2023-05-08T10:32:50;102241.31;;;15.61;100.00
11440;BME280;5776;51.814;4.510;2023-05-08T10:35:17;102231.97;;;15.62;100.00
11440;BME280;5776;51.814;4.510;2023-05-08T10:37:44;102236.91;;;15.65;100.00
11440;BME280;5776;51.814;4.510;2023-05-08T10:40:12;102233.84;;;15.67;100.00
11440;BME280;5776;51.814;4.510;2023-05-08T10:42:40;102241.25;;;15.71;100.00
11440;BME280;5776;51.814;4.510;2023-05-08T10:45:07;102233.56;;;15.73;100.00
11440;BME280;5776;51.814;4.510;2023-05-08T10:51:11;102228.59;;;15.75;100.00
11440;BME280;5776;51.814;4.510;2023-05-08T10:53:47;102230.75;;;15.79;100.00
11440;BME280;5776;51.814;4.510;2023-05-08T10:56:15;102227.44;;;15.82;100.00
11440;BME280;5776;51.814;4.510;2023-05-08T10:58:41;102227.75;;;15.80;100.00
11440;BME280;5776;51.814;4.510;2023-05-08T11:03:45;102219.47;;;15.85;100.00
11440;BME280;5776;51.814;4.510;2023-05-08T11:06:12;102216.97;;;15.89;100.00
11440;BME280;5776;51.814;4.510;2023-05-08T11:08:48;102213.63;;;15.92;100.00
11440;BME280;5776;51.814;4.510;2023-05-08T11:19:20;102212.19;;;15.99;100.00
11440;BME280;5776;51.814;4.510;2023-05-08T11:22:21;102211.09;;;16.01;100.00
11440;BME280;5776;51.814;4.510;2023-05-08T11:27:34;102209.44;;;15.99;100.00
11440;BME280;5776;51.814;4.510;2023-05-08T11:30:21;102204.47;;;16.02;100.00
11440;BME280;5776;51.814;4.510;2023-05-08T11:40:58;102198.13;;;16.06;100.00
11440;BME280;5776;51.814;4.510;2023-05-08T11:46:04;102206.88;;;16.08;100.00
11440;BME280;5776;51.814;4.510;2023-05-08T11:48:31;102198.13;;;16.06;100.00
11440;BME280;5776;51.814;4.510;2023-05-08T11:51:01;102204.44;;;16.07;100.00
11440;BME280;5776;51.814;4.510;2023-05-08T11:53:28;102204.16;;;16.08;100.00
11440;BME280;5776;51.814;4.510;2023-05-08T11:55:56;102211.78;;;16.11;100.00
11440;BME280;5776;51.814;4.510;2023-05-08T11:58:22;102191.41;;;16.17;100.00
11440;BME280;5776;51.814;4.510;2023-05-08T12:00:48;102198.00;;;16.16;100.00
11440;BME280;5776;51.814;4.510;2023-05-08T12:03:16;102202.91;;;16.19;100.00
11440;BME280;5776;51.814;4.510;2023-05-08T12:05:43;102190.31;;;16.18;100.00
11440;BME280;5776;51.814;4.510;2023-05-08T12:08:10;102190.31;;;16.18;100.00
11440;BME280;5776;51.814;4.510;2023-05-08T12:10:56;102191.38;;;16.23;100.00
11440;BME280;5776;51.814;4.510;2023-05-08T12:13:27;102181.97;;;16.29;100.00
11440;BME280;5776;51.814;4.510;2023-05-08T12:15:55;102186.56;;;16.33;100.00
11440;BME280;5776;51.814;4.510;2023-05-08T12:18:22;102185.16;;;16.36;100.00
11440;BME280;5776;51.814;4.510;2023-05-08T12:20:52;102187.38;;;16.34;100.00
11440;BME280;5776;51.814;4.510;2023-05-08T12:23:19;102170.13;;;16.33;100.00
11440;BME280;5776;51.814;4.510;2023-05-08T12:25:45;102173.06;;;16.37;100.00
11440;BME280;5776;51.814;4.510;2023-05-08T12:28:11;102186.19;;;16.40;100.00
11440;BME280;5776;51.814;4.510;2023-05-08T12:30:37;102173.25;;;16.46;100.00
11440;BME280;5776;51.814;4.510;2023-05-08T12:33:04;102169.38;;;16.47;100.00
11440;BME280;5776;51.814;4.510;2023-05-08T12:35:30;102175.66;;;16.47;100.00
11440;BME280;5776;51.814;4.510;2023-05-08T12:38:01;102168.28;;;16.48;100.00
11440;BME280;5776;51.814;4.510;2023-05-08T12:40:33;102172.94;;;16.47;100.00
11440;BME280;5776;51.814;4.510;2023-05-08T12:43:01;102174.59;;;16.48;100.00
11440;BME280;5776;51.814;4.510;2023-05-08T12:45:29;102172.66;;;16.49;100.00
11440;BME280;5776;51.814;4.510;2023-05-08T12:48:02;102172.66;;;16.49;100.00
11440;BME280;5776;51.814;4.510;2023-05-08T12:50:33;102159.75;;;16.49;100.00
11440;BME280;5776;51.814;4.510;2023-05-08T12:53:01;102157.00;;;16.49;100.00
11440;BME280;5776;51.814;4.510;2023-05-08T12:55:29;102161.41;;;16.50;100.00
11440;BME280;5776;51.814;4.510;2023-05-08T13:00:24;102155.59;;;16.52;100.00
11440;BME280;5776;51.814;4.510;2023-05-08T13:02:54;102160.28;;;16.51;100.00
11440;BME280;5776;51.814;4.510;2023-05-08T13:05:21;102157.25;;;16.53;100.00
11440;BME280;5776;51.814;4.510;2023-05-08T13:07:48;102163.53;;;16.53;100.00
11440;BME280;5776;51.814;4.510;2023-05-08T13:10:14;102152.56;;;16.53;100.00
11440;BME280;5776;51.814;4.510;2023-05-08T13:12:40;102143.22;;;16.54;100.00
11440;BME280;5776;51.814;4.510;2023-05-08T13:15:07;102139.38;;;16.55;100.00
11440;BME280;5776;51.814;4.510;2023-05-08T13:17:34;102140.19;;;16.56;100.00
11440;BME280;5776;51.814;4.510;2023-05-08T13:20:00;102143.47;;;16.58;100.00
11440;BME280;5776;51.814;4.510;2023-05-08T13:22:28;102138.47;;;16.60;100.00
11440;BME280;5776;51.814;4.510;2023-05-08T13:24:54;102150.28;;;16.60;100.00
11440;BME280;5776;51.814;4.510;2023-05-08T13:27:20;102146.41;;;16.61;100.00
11440;BME280;5776;51.814;4.510;2023-05-08T13:29:46;102144.78;;;16.60;100.00
11440;BME280;5776;51.814;4.510;2023-05-08T13:32:12;102148.03;;;16.62;100.00
11440;BME280;5776;51.814;4.510;2023-05-08T13:34:38;102140.63;;;16.63;100.00
11440;BME280;5776;51.814;4.510;2023-05-08T13:37:04;102145.28;;;16.62;100.00
11440;BME280;5776;51.814;4.510;2023-05-08T13:39:31;102146.63;;;16.65;100.00
11440;BME280;5776;51.814;4.510;2023-05-08T13:42:04;102148.25;;;16.66;100.00
11440;BME280;5776;51.814;4.510;2023-05-08T13:44:30;102144.72;;;16.66;100.00
11440;BME280;5776;51.814;4.510;2023-05-08T13:46:56;102140.84;;;16.67;100.00
11440;BME280;5776;51.814;4.510;2023-05-08T13:49:22;102142.47;;;16.68;100.00
11440;BME280;5776;51.814;4.510;2023-05-08T13:51:49;102138.09;;;16.67;100.00
11440;BME280;5776;51.814;4.510;2023-05-08T13:54:15;102137.81;;;16.68;100.00
11440;BME280;5776;51.814;4.510;2023-05-08T13:56:41;102134.22;;;16.68;100.00
11440;BME280;5776;51.814;4.510;2023-05-08T13:59:07;102135.06;;;16.68;100.00
11440;BME280;5776;51.814;4.510;2023-05-08T14:01:33;102135.28;;;16.72;100.00